createdAt,value
2023-04-15T00:00:59.808Z,100565.84
2023-04-15T00:03:27.035Z,100559.56
2023-04-15T00:05:53.767Z,100556.94
2023-04-15T00:08:20.614Z,100560.38
2023-04-15T00:10:47.411Z,100559.38
2023-04-15T00:13:13.938Z,100555.53
2023-04-15T00:15:41.110Z,100565.13
2023-04-15T00:18:08.318Z,100563.28
2023-04-15T00:20:35.486Z,100560.44
2023-04-15T00:23:04.215Z,100560.25
2023-04-15T00:25:31.189Z,100559.06
2023-04-15T00:27:57.793Z,100546.88
2023-04-15T00:30:24.435Z,100554.63
2023-04-15T00:32:51.102Z,100554.63
2023-04-15T00:35:18.291Z,100547.94
2023-04-15T00:37:46.325Z,100543.47
2023-04-15T00:40:13.953Z,100536.56
2023-04-15T00:42:40.991Z,100545.28
2023-04-15T00:45:08.924Z,100548.13
2023-04-15T00:47:37.753Z,100549.78
2023-04-15T00:50:05.103Z,100550.56
2023-04-15T00:52:32.137Z,100550.56
2023-04-15T00:54:59.643Z,100550.94
2023-04-15T00:57:28.264Z,100539.31
2023-04-15T00:59:56.117Z,100542.13
2023-04-15T01:02:23.725Z,100533.75
2023-04-15T01:04:50.537Z,100530.31
2023-04-15T01:07:17.481Z,100528.22
2023-04-15T01:09:44.176Z,100516.03
2023-04-15T01:12:14.234Z,100516.59
2023-04-15T01:14:41.220Z,100507.03
2023-04-15T01:17:07.755Z,100507.41
2023-04-15T01:19:34.676Z,100506.16
2023-04-15T01:22:03.166Z,100508.94
2023-04-15T01:24:31.828Z,100507.34
2023-04-15T01:26:58.553Z,100509.34
2023-04-15T01:29:25.197Z,100511.00
2023-04-15T01:31:53.118Z,100512.81
2023-04-15T01:34:19.879Z,100515.88
2023-04-15T01:36:46.897Z,100518.72
2023-04-15T01:39:13.577Z,100517.50
2023-04-15T01:41:40.881Z,100511.25
2023-04-15T01:44:07.480Z,100517.13
2023-04-15T01:46:34.376Z,100512.03
2023-04-15T01:49:01.349Z,100509.59
2023-04-15T01:51:28.323Z,100503.50
2023-04-15T01:53:56.982Z,100500.03
2023-04-15T01:56:26.734Z,100497.22
2023-04-15T01:58:53.522Z,100485.81
2023-04-15T02:01:20.281Z,100490.31
2023-04-15T02:03:48.037Z,100491.47
2023-04-15T02:06:15.114Z,100490.84
2023-04-15T02:08:41.777Z,100479.66
2023-04-15T02:11:08.535Z,100477.19
2023-04-15T02:13:35.285Z,100475.56
2023-04-15T02:16:01.968Z,100470.28
2023-04-15T02:18:28.637Z,100467.84
2023-04-15T02:20:57.264Z,100471.13
2023-04-15T02:23:24.085Z,100464.19
2023-04-15T02:25:53.473Z,100468.66
2023-04-15T02:28:21.661Z,100458.09
2023-04-15T02:30:53.103Z,100451.81
2023-04-15T02:33:20.965Z,100457.09
2023-04-15T02:35:47.659Z,100453.63
2023-04-15T02:38:16.758Z,100460.91
2023-04-15T02:40:43.387Z,100445.50
2023-04-15T02:43:09.931Z,100434.94
2023-04-15T02:45:36.627Z,100444.53
2023-04-15T02:48:06.438Z,100445.16
2023-04-15T02:50:33.447Z,100444.34
2023-04-15T02:53:01.685Z,100441.63
2023-04-15T02:55:29.016Z,100445.31
2023-04-15T02:57:55.765Z,100431.69
2023-04-15T03:00:22.632Z,100432.69
2023-04-15T03:02:52.512Z,100437.91
2023-04-15T03:05:19.194Z,100435.84
2023-04-15T03:07:45.831Z,100429.09
2023-04-15T03:10:12.535Z,100425.22
2023-04-15T03:12:39.545Z,100434.69
2023-04-15T03:15:06.989Z,100435.88
2023-04-15T03:17:33.746Z,100431.78
2023-04-15T03:20:02.456Z,100433.31
2023-04-15T03:22:29.045Z,100446.06
2023-04-15T03:24:55.633Z,100444.44
2023-04-15T03:27:22.191Z,100448.47
2023-04-15T03:29:48.814Z,100454.75
2023-04-15T03:32:15.571Z,100452.28
2023-04-15T03:34:42.352Z,100450.97
2023-04-15T03:37:08.951Z,100457.81
2023-04-15T03:39:36.174Z,100466.53
2023-04-15T03:42:03.480Z,100466.53
2023-04-15T03:44:30.618Z,100468.00
2023-04-15T03:46:57.148Z,100478.00
2023-04-15T03:49:24.588Z,100488.84
2023-04-15T03:51:51.318Z,100502.22
2023-04-15T03:54:17.821Z,100525.69
2023-04-15T03:56:44.390Z,100540.53
2023-04-15T03:59:11.442Z,100555.34
2023-04-15T04:01:38.022Z,100577.66
2023-04-15T04:04:04.789Z,100613.50
2023-04-15T04:06:31.705Z,100631.34
2023-04-15T04:08:58.301Z,100643.84
2023-04-15T04:11:24.909Z,100653.13
2023-04-15T04:13:51.456Z,100660.41
2023-04-15T04:16:18.062Z,100684.00
2023-04-15T04:18:44.624Z,100684.47
2023-04-15T04:21:11.678Z,100702.22
2023-04-15T04:23:38.227Z,100694.88
2023-04-15T04:26:04.757Z,100699.66
2023-04-15T04:28:31.600Z,100694.28
2023-04-15T04:30:58.128Z,100699.84
2023-04-15T04:33:24.757Z,100693.53
2023-04-15T04:35:51.605Z,100688.44
2023-04-15T04:38:18.206Z,100675.31
2023-04-15T04:40:44.805Z,100660.22
2023-04-15T04:43:11.368Z,100653.00
2023-04-15T04:45:37.941Z,100655.03
2023-04-15T04:48:07.271Z,100644.66
2023-04-15T04:50:34.493Z,100625.91
2023-04-15T04:53:01.743Z,100619.97
2023-04-15T04:55:28.588Z,100611.88
2023-04-15T04:57:55.301Z,100598.53
2023-04-15T05:00:21.827Z,100591.91
2023-04-15T05:02:48.685Z,100576.69
2023-04-15T05:05:15.447Z,100562.06
2023-04-15T05:07:42.322Z,100555.31
2023-04-15T05:10:09.348Z,100536.50
2023-04-15T05:12:37.517Z,100509.03
2023-04-15T05:15:05.324Z,100488.22
2023-04-15T05:17:33.366Z,100474.00
2023-04-15T05:20:00.002Z,100473.22
2023-04-15T05:22:26.607Z,100452.91
2023-04-15T05:24:53.168Z,100448.09
2023-04-15T05:27:19.726Z,100442.63
2023-04-15T05:29:46.396Z,100446.09
2023-04-15T05:32:12.958Z,100436.81
2023-04-15T05:34:39.467Z,100444.56
2023-04-15T05:37:06.112Z,100450.91
2023-04-15T05:39:32.800Z,100457.44
2023-04-15T05:42:00.088Z,100462.53
2023-04-15T05:44:26.925Z,100475.38
2023-04-15T05:46:53.492Z,100496.13
2023-04-15T05:49:20.241Z,100511.63
2023-04-15T05:51:48.544Z,100511.25
2023-04-15T05:54:15.217Z,100538.09
2023-04-15T05:56:41.897Z,100550.38
2023-04-15T05:59:08.662Z,100557.09
2023-04-15T06:01:35.609Z,100570.91
2023-04-15T06:04:02.199Z,100570.41
2023-04-15T06:06:28.791Z,100582.22
2023-04-15T06:08:55.963Z,100593.69
2023-04-15T06:11:22.558Z,100615.53
2023-04-15T06:13:49.250Z,100634.75
2023-04-15T06:16:16.077Z,100665.25
2023-04-15T06:18:42.703Z,100693.19
2023-04-15T06:21:09.260Z,100719.59
2023-04-15T06:23:41.171Z,100740.47
2023-04-15T06:26:08.124Z,100757.47
2023-04-15T06:28:34.794Z,100774.69
2023-04-15T06:31:02.019Z,100791.94
2023-04-15T06:33:28.764Z,100794.47
2023-04-15T06:35:55.423Z,100812.31
2023-04-15T06:38:22.057Z,100820.50
2023-04-15T06:40:48.638Z,100838.31
2023-04-15T06:43:15.628Z,100866.31
2023-04-15T06:45:42.180Z,100885.66
2023-04-15T06:48:08.722Z,100901.53
2023-04-15T06:50:35.805Z,100924.16
2023-04-15T06:53:03.085Z,100936.28
2023-04-15T06:55:29.864Z,100948.63
2023-04-15T06:57:56.505Z,100980.00
2023-04-15T07:00:23.363Z,100983.22
2023-04-15T07:02:49.935Z,100988.41
2023-04-15T07:05:16.492Z,100998.56
2023-04-15T07:07:43.131Z,101025.66
2023-04-15T07:10:10.180Z,101051.72
2023-04-15T07:12:36.812Z,101067.53
2023-04-15T07:15:04.405Z,101082.19
2023-04-15T07:17:31.117Z,101099.72
2023-04-15T07:19:57.699Z,101115.34
2023-04-15T07:22:24.479Z,101144.41
2023-04-15T07:24:51.174Z,101171.88
2023-04-15T07:27:18.244Z,101178.88
2023-04-15T07:29:44.758Z,101200.75
2023-04-15T07:32:11.434Z,101210.66
2023-04-15T07:34:38.149Z,101221.28
2023-04-15T07:37:04.722Z,101234.59
2023-04-15T07:39:31.567Z,101250.78
2023-04-15T07:41:59.120Z,101264.53
2023-04-15T07:44:27.228Z,101270.09
2023-04-15T07:46:53.988Z,101277.25
2023-04-15T07:49:21.505Z,101282.16
2023-04-15T07:51:49.121Z,101288.47
2023-04-15T07:54:16.308Z,101302.16
2023-04-15T07:56:43.048Z,101296.50
2023-04-15T07:59:10.174Z,101311.16
2023-04-15T08:01:36.909Z,101315.75
2023-04-15T08:04:03.993Z,101322.56
2023-04-15T08:06:31.049Z,101327.09
2023-04-15T08:08:57.772Z,101337.81
2023-04-15T08:11:25.311Z,101346.88
2023-04-15T08:13:52.841Z,101345.28
2023-04-15T08:16:24.696Z,101336.59
2023-04-15T08:18:52.982Z,101339.81
2023-04-15T08:21:20.190Z,101340.66
2023-04-15T08:23:48.425Z,101352.59
2023-04-15T08:26:15.106Z,101345.53
2023-04-15T08:28:42.937Z,101352.38
2023-04-15T08:31:10.153Z,101342.13
2023-04-15T08:33:36.960Z,101350.56
2023-04-15T08:36:03.769Z,101350.44
2023-04-15T08:38:30.785Z,101360.75
2023-04-15T08:41:00.183Z,101374.63
2023-04-15T08:43:34.631Z,101375.34
2023-04-15T08:46:02.369Z,101384.84
2023-04-15T08:48:32.607Z,101388.75
2023-04-15T08:50:59.927Z,101403.94
2023-04-15T08:53:26.562Z,101403.72
2023-04-15T08:55:57.636Z,101422.41
2023-04-15T08:58:25.260Z,101428.78
2023-04-15T09:00:51.828Z,101426.72
2023-04-15T09:03:19.328Z,101439.44
2023-04-15T09:05:47.206Z,101440.78
2023-04-15T09:08:13.957Z,101447.19
2023-04-15T09:10:40.662Z,101464.13
2023-04-15T09:13:07.493Z,101478.28
2023-04-15T09:15:38.615Z,101476.00
2023-04-15T09:18:06.039Z,101481.97
2023-04-15T09:20:40.910Z,101483.31
2023-04-15T09:23:15.023Z,101486.69
2023-04-15T09:25:44.957Z,101495.47
2023-04-15T09:28:11.904Z,101503.22
2023-04-15T09:30:38.585Z,101530.25
2023-04-15T09:33:08.941Z,101520.59
2023-04-15T09:35:36.960Z,101525.28
2023-04-15T09:38:08.063Z,101539.25
2023-04-15T09:40:39.996Z,101544.44
2023-04-15T09:43:08.034Z,101538.19
2023-04-15T09:45:36.406Z,101556.38
2023-04-15T09:48:31.104Z,101568.22
2023-04-15T09:51:01.854Z,101559.41
2023-04-15T09:53:29.810Z,101572.38
2023-04-15T09:56:01.544Z,101579.78
2023-04-15T09:58:31.960Z,101577.00
2023-04-15T10:01:00.142Z,101584.09
2023-04-15T10:03:28.994Z,101596.50
2023-04-15T10:05:57.647Z,101603.53
2023-04-15T10:08:27.092Z,101618.69
2023-04-15T10:10:54.248Z,101615.91
2023-04-15T10:13:25.875Z,101617.56
2023-04-15T10:16:01.042Z,101633.22
2023-04-15T10:18:28.815Z,101622.31
2023-04-15T10:20:55.769Z,101615.31
2023-04-15T10:23:24.458Z,101624.56
2023-04-15T10:25:56.143Z,101623.13
2023-04-15T10:28:23.023Z,101637.25
2023-04-15T10:30:50.277Z,101632.78
2023-04-15T10:33:20.601Z,101631.69
2023-04-15T10:35:50.224Z,101630.72
2023-04-15T10:38:36.676Z,101636.38
2023-04-15T10:41:18.709Z,101648.31
2023-04-15T10:44:00.052Z,101658.13
2023-04-15T10:46:38.762Z,101657.28
2023-04-15T10:49:13.752Z,101659.25
2023-04-15T10:51:42.232Z,101659.56
2023-04-15T10:54:31.157Z,101661.97
2023-04-15T10:57:01.612Z,101668.63
2023-04-15T10:59:31.718Z,101672.84
2023-04-15T11:02:03.235Z,101677.97
2023-04-15T11:04:56.281Z,101689.19
2023-04-15T11:07:44.240Z,101678.72
2023-04-15T11:10:13.538Z,101680.91
2023-04-15T11:12:41.354Z,101683.06
2023-04-15T11:15:32.832Z,101683.50
2023-04-15T11:18:10.791Z,101679.31
2023-04-15T11:20:39.294Z,101685.19
2023-04-15T11:23:14.152Z,101683.28
2023-04-15T11:25:43.280Z,101692.94
2023-04-15T11:28:11.026Z,101705.69
2023-04-15T11:30:39.132Z,101697.25
2023-04-15T11:33:08.831Z,101713.41
2023-04-15T11:35:36.049Z,101715.56
2023-04-15T11:38:08.758Z,101711.16
2023-04-15T11:40:36.455Z,101710.19
2023-04-15T11:43:14.446Z,101719.41
2023-04-15T11:46:01.040Z,101723.34
2023-04-15T11:48:29.905Z,101726.28
2023-04-15T11:51:04.488Z,101737.75
2023-04-15T11:53:39.698Z,101735.66
2023-04-15T11:56:07.374Z,101735.00
2023-04-15T11:58:39.291Z,101746.31
2023-04-15T12:01:07.409Z,101738.09
2023-04-15T12:03:43.538Z,101752.22
2023-04-15T12:06:16.595Z,101741.91
2023-04-15T12:08:55.985Z,101752.03
2023-04-15T12:11:43.629Z,101757.09
2023-04-15T12:14:13.042Z,101762.00
2023-04-15T12:16:48.256Z,101757.31
2023-04-15T12:19:19.624Z,101757.31
2023-04-15T12:21:48.727Z,101752.53
2023-04-15T12:24:15.864Z,101765.88
2023-04-15T12:26:51.124Z,101770.75
2023-04-15T12:29:18.460Z,101772.97
2023-04-15T12:31:56.600Z,101772.97
2023-04-15T12:34:43.991Z,101773.94
2023-04-15T12:37:12.368Z,101780.84
2023-04-15T12:39:41.599Z,101784.19
2023-04-15T12:42:09.084Z,101784.56
2023-04-15T12:44:36.988Z,101783.22
2023-04-15T12:47:04.388Z,101795.78
2023-04-15T12:49:32.634Z,101793.03
2023-04-15T12:52:01.133Z,101805.47
2023-04-15T12:54:29.014Z,101801.44
2023-04-15T12:56:56.071Z,101810.16
2023-04-15T12:59:24.399Z,101816.41
2023-04-15T13:01:52.787Z,101830.53
2023-04-15T13:04:20.903Z,101826.38
2023-04-15T13:06:47.766Z,101829.97
2023-04-15T13:09:14.853Z,101832.34
2023-04-15T13:11:41.897Z,101834.13
2023-04-15T13:14:11.695Z,101836.50
2023-04-15T13:16:38.939Z,101839.25
2023-04-15T13:19:05.612Z,101845.16
2023-04-15T13:21:36.115Z,101842.59
2023-04-15T13:24:04.536Z,101842.03
2023-04-15T13:26:32.176Z,101856.69
2023-04-15T13:29:00.633Z,101848.53
2023-04-15T13:31:27.551Z,101859.19
2023-04-15T13:33:54.322Z,101863.00
2023-04-15T13:36:21.216Z,101856.00
2023-04-15T13:38:50.484Z,101858.09
2023-04-15T13:41:18.033Z,101863.09
2023-04-15T13:43:44.598Z,101862.91
2023-04-15T13:46:11.269Z,101871.31
2023-04-15T13:48:37.937Z,101871.00
2023-04-15T13:51:04.567Z,101871.06
2023-04-15T13:53:37.823Z,101875.81
2023-04-15T13:56:06.242Z,101872.28
2023-04-15T13:58:32.929Z,101874.50
2023-04-15T14:00:59.581Z,101879.91
2023-04-15T14:03:26.362Z,101875.28
2023-04-15T14:05:56.108Z,101888.66
2023-04-15T14:08:23.523Z,101891.41
2023-04-15T14:10:50.187Z,101902.59
2023-04-15T14:13:16.859Z,101900.72
2023-04-15T14:15:43.476Z,101904.31
2023-04-15T14:18:10.181Z,101909.25
2023-04-15T14:20:36.739Z,101913.66
2023-04-15T14:23:03.263Z,101923.06
2023-04-15T14:25:33.848Z,101929.16
2023-04-15T14:28:01.786Z,101922.56
2023-04-15T14:30:28.556Z,101935.59
2023-04-15T14:32:55.237Z,101941.88
2023-04-15T14:35:21.999Z,101946.69
2023-04-15T14:37:48.537Z,101943.81
2023-04-15T14:40:15.850Z,101948.81
2023-04-15T14:42:42.398Z,101954.78
2023-04-15T14:45:09.927Z,101949.19
2023-04-15T14:47:36.650Z,101954.59
2023-04-15T14:50:04.000Z,101947.56
2023-04-15T14:52:39.009Z,101947.19
2023-04-15T14:55:07.953Z,101951.97
2023-04-15T14:57:34.601Z,101962.94
2023-04-15T15:00:01.340Z,101970.03
2023-04-15T15:02:38.444Z,101972.81
2023-04-15T15:05:07.170Z,101965.84
2023-04-15T15:07:34.000Z,101972.34
2023-04-15T15:10:00.861Z,101977.56
2023-04-15T15:12:27.581Z,101991.41
2023-04-15T15:14:56.108Z,101984.59
2023-04-15T15:17:23.112Z,102003.09
2023-04-15T15:19:49.691Z,101991.59
2023-04-15T15:22:17.552Z,101992.63
2023-04-15T15:24:45.155Z,101985.28
2023-04-15T15:27:11.941Z,102004.00
2023-04-15T15:29:38.838Z,102014.38
2023-04-15T15:32:05.661Z,102016.47
2023-04-15T15:34:32.455Z,102011.63
2023-04-15T15:37:00.399Z,102019.69
2023-04-15T15:39:27.844Z,102029.31
2023-04-15T15:41:54.828Z,102026.66
2023-04-15T15:44:21.396Z,102036.03
2023-04-15T15:46:48.442Z,102041.38
2023-04-15T15:49:15.100Z,102041.13
2023-04-15T15:51:41.739Z,102041.47
2023-04-15T15:54:08.448Z,102047.94
2023-04-15T15:56:35.372Z,102041.06
2023-04-15T15:59:02.250Z,102054.72
2023-04-15T16:01:29.012Z,102053.13
2023-04-15T16:03:55.757Z,102049.84
2023-04-15T16:06:23.633Z,102054.03
2023-04-15T16:08:50.297Z,102052.19
2023-04-15T16:11:19.018Z,102049.81
2023-04-15T16:13:46.519Z,102061.66
2023-04-15T16:16:13.336Z,102057.53
2023-04-15T16:18:39.917Z,102059.22
2023-04-15T16:21:06.641Z,102065.59
2023-04-15T16:23:33.512Z,102066.09
2023-04-15T16:26:00.539Z,102062.50
2023-04-15T16:28:27.415Z,102062.50
2023-04-15T16:30:54.737Z,102059.66
2023-04-15T16:33:21.487Z,102066.50
2023-04-15T16:35:48.270Z,102068.84
2023-04-15T16:38:14.941Z,102067.03
2023-04-15T16:40:41.571Z,102071.88
2023-04-15T16:43:11.751Z,102081.84
2023-04-15T16:45:38.617Z,102075.75
2023-04-15T16:48:05.422Z,102071.75
2023-04-15T16:50:32.292Z,102079.25
2023-04-15T16:52:58.834Z,102074.75
2023-04-15T16:55:25.494Z,102078.78
2023-04-15T16:58:00.971Z,102079.72
2023-04-15T17:00:29.728Z,102073.44
2023-04-15T17:02:56.405Z,102078.88
2023-04-15T17:05:23.188Z,102082.38
2023-04-15T17:07:49.915Z,102093.00
2023-04-15T17:10:16.557Z,102095.78
2023-04-15T17:12:43.576Z,102101.06
2023-04-15T17:15:10.378Z,102109.78
2023-04-15T17:17:37.012Z,102103.78
2023-04-15T17:20:04.588Z,102094.16
2023-04-15T17:22:31.322Z,102090.47
2023-04-15T17:24:57.904Z,102101.72
2023-04-15T17:27:26.505Z,102095.91
2023-04-15T17:29:53.357Z,102099.81
2023-04-15T17:32:20.322Z,102111.31
2023-04-15T17:34:50.118Z,102117.41
2023-04-15T17:37:18.126Z,102117.91
2023-04-15T17:39:44.993Z,102118.72
2023-04-15T17:42:12.187Z,102115.44
2023-04-15T17:44:39.000Z,102114.16
2023-04-15T17:47:05.752Z,102123.97
2023-04-15T17:49:34.677Z,102123.91
2023-04-15T17:52:01.472Z,102120.66
2023-04-15T17:54:28.262Z,102123.50
2023-04-15T17:56:56.654Z,102117.16
2023-04-15T17:59:23.689Z,102118.75
2023-04-15T18:01:50.728Z,102122.81
2023-04-15T18:04:17.562Z,102119.09
2023-04-15T18:06:44.354Z,102120.66
2023-04-15T18:09:11.493Z,102115.44
2023-04-15T18:11:40.056Z,102117.97
2023-04-15T18:14:07.181Z,102115.94
2023-04-15T18:16:34.256Z,102113.47
2023-04-15T18:19:01.387Z,102115.16
2023-04-15T18:21:27.995Z,102116.75
2023-04-15T18:23:54.634Z,102122.56
2023-04-15T18:26:22.363Z,102113.66
2023-04-15T18:28:49.121Z,102114.25
2023-04-15T18:31:15.755Z,102108.16
2023-04-15T18:33:42.488Z,102121.81
2023-04-15T18:36:10.134Z,102111.78
2023-04-15T18:38:37.151Z,102111.69
2023-04-15T18:41:05.493Z,102118.47
2023-04-15T18:43:32.468Z,102113.22
2023-04-15T18:46:00.191Z,102127.53
2023-04-15T18:48:27.247Z,102128.09
2023-04-15T18:50:54.274Z,102132.94
2023-04-15T18:53:21.663Z,102129.19
2023-04-15T18:55:48.291Z,102127.69
2023-04-15T18:58:14.910Z,102124.06
2023-04-15T19:00:44.114Z,102130.69
2023-04-15T19:03:11.753Z,102131.69
2023-04-15T19:05:38.698Z,102129.44
2023-04-15T19:08:05.480Z,102125.44
2023-04-15T19:10:32.105Z,102118.09
2023-04-15T19:12:58.716Z,102111.97
2023-04-15T19:15:25.466Z,102114.03
2023-04-15T19:17:52.028Z,102115.03
2023-04-15T19:20:18.729Z,102111.69
2023-04-15T19:22:45.946Z,102112.22
2023-04-15T19:25:12.635Z,102119.94
2023-04-15T19:27:39.275Z,102124.78
2023-04-15T19:30:07.212Z,102114.53
2023-04-15T19:32:34.554Z,102112.44
2023-04-15T19:35:01.174Z,102102.56
2023-04-15T19:37:27.812Z,102105.91
2023-04-15T19:39:55.898Z,102100.66
2023-04-15T19:42:22.512Z,102097.16
2023-04-15T19:44:49.296Z,102103.28
2023-04-15T19:47:16.408Z,102100.44
2023-04-15T19:49:43.276Z,102101.28
2023-04-15T19:52:09.956Z,102098.91
2023-04-15T19:54:36.589Z,102089.19
2023-04-15T19:57:03.246Z,102100.16
2023-04-15T19:59:29.888Z,102098.75
2023-04-15T20:01:56.820Z,102108.06
2023-04-15T20:04:23.932Z,102100.31
2023-04-15T20:06:50.899Z,102108.91
2023-04-15T20:09:17.681Z,102114.03
2023-04-15T20:12:44.991Z,102118.19
2023-04-15T20:14:31.070Z,102119.59
2023-04-15T20:16:57.632Z,102124.84
2023-04-15T20:19:24.443Z,102119.84
2023-04-15T20:21:52.560Z,102126.63
2023-04-15T20:24:20.245Z,102126.34
2023-04-15T20:26:47.191Z,102117.56
2023-04-15T20:29:14.053Z,102114.94
2023-04-15T20:31:40.853Z,102110.91
2023-04-15T20:34:09.937Z,102118.00
2023-04-15T20:36:37.945Z,102127.97
2023-04-15T20:39:04.794Z,102115.59
2023-04-15T20:41:31.887Z,102106.44
2023-04-15T20:43:58.521Z,102106.31
2023-04-15T20:46:27.298Z,102113.91
2023-04-15T20:48:54.520Z,102099.06
2023-04-15T20:51:21.270Z,102107.09
2023-04-15T20:53:47.890Z,102100.06
2023-04-15T20:56:14.468Z,102094.06
2023-04-15T20:58:41.254Z,102094.50
2023-04-15T21:01:07.980Z,102097.63
2023-04-15T21:03:34.845Z,102093.63
2023-04-15T21:06:01.529Z,102091.56
2023-04-15T21:08:30.014Z,102104.56
2023-04-15T21:10:57.818Z,102105.38
2023-04-15T21:13:24.487Z,102105.00
2023-04-15T21:15:53.982Z,102097.41
2023-04-15T21:18:22.597Z,102090.38
2023-04-15T21:21:00.165Z,102085.97
2023-04-15T21:23:31.026Z,102082.66
2023-04-15T21:25:58.877Z,102094.75
2023-04-15T21:28:27.956Z,102087.00
2023-04-15T21:30:54.527Z,102091.56
2023-04-15T21:33:21.139Z,102093.19
2023-04-15T21:35:47.976Z,102099.84
2023-04-15T21:38:14.894Z,102103.97
2023-04-15T21:40:41.561Z,102099.28
2023-04-15T21:43:08.532Z,102095.69
2023-04-15T21:45:36.384Z,102100.72
2023-04-15T21:48:07.834Z,102100.03
2023-04-15T21:50:36.840Z,102100.16
2023-04-15T21:53:03.947Z,102110.31
2023-04-15T21:55:30.569Z,102111.84
2023-04-15T21:57:57.622Z,102115.44
2023-04-15T22:00:24.429Z,102117.81
2023-04-15T22:02:51.735Z,102126.41
2023-04-15T22:05:18.641Z,102132.38
2023-04-15T22:07:45.219Z,102145.66
2023-04-15T22:10:12.341Z,102141.09
2023-04-15T22:12:44.072Z,102143.47
2023-04-15T22:15:11.166Z,102145.16
2023-04-15T22:17:37.971Z,102156.91
2023-04-15T22:20:04.934Z,102161.34
2023-04-15T22:22:37.716Z,102162.69
2023-04-15T22:25:11.418Z,102165.03
2023-04-15T22:27:38.185Z,102164.72
2023-04-15T22:30:06.066Z,102172.75
2023-04-15T22:32:32.900Z,102170.94
2023-04-15T22:34:59.541Z,102175.50
2023-04-15T22:37:26.252Z,102173.00
2023-04-15T22:39:52.936Z,102173.31
2023-04-15T22:42:19.469Z,102170.56
2023-04-15T22:44:46.340Z,102169.22
2023-04-15T22:47:12.905Z,102159.91
2023-04-15T22:49:39.970Z,102168.66
2023-04-15T22:52:09.025Z,102171.56
2023-04-15T22:54:37.197Z,102180.56
2023-04-15T22:57:03.915Z,102183.59
2023-04-15T22:59:30.492Z,102191.50
2023-04-15T23:01:59.309Z,102198.88
2023-04-15T23:04:27.647Z,102202.94
2023-04-15T23:06:54.870Z,102211.69
2023-04-15T23:09:21.564Z,102208.41
2023-04-15T23:11:48.199Z,102212.41
2023-04-15T23:14:14.856Z,102218.00
2023-04-15T23:16:41.468Z,102222.28
2023-04-15T23:19:08.600Z,102228.00
2023-04-15T23:21:35.541Z,102226.06
2023-04-15T23:24:03.325Z,102225.06
2023-04-15T23:26:29.992Z,102239.53
2023-04-15T23:28:56.547Z,102235.06
2023-04-15T23:31:23.229Z,102243.53
2023-04-15T23:33:49.795Z,102245.94
2023-04-15T23:36:16.382Z,102248.44
2023-04-15T23:38:43.002Z,102255.91
2023-04-15T23:41:11.918Z,102259.41
2023-04-15T23:43:38.713Z,102253.28
2023-04-15T23:46:05.535Z,102266.75
2023-04-15T23:48:32.153Z,102274.25
2023-04-15T23:50:59.049Z,102280.22
2023-04-15T23:53:25.926Z,102267.19
2023-04-15T23:55:52.498Z,102270.75
2023-04-15T23:58:19.533Z,102284.38
